createdAt,value
2023-01-29T00:00:25.185Z,11.73
2023-01-29T00:03:53.355Z,11.05
2023-01-29T00:07:18.530Z,10.90
2023-01-29T00:10:44.034Z,12.50
2023-01-29T00:14:10.804Z,11.43
2023-01-29T00:17:37.401Z,11.93
2023-01-29T00:21:02.278Z,12.27
2023-01-29T00:24:27.835Z,11.27
2023-01-29T00:27:55.916Z,11.85
2023-01-29T00:31:24.034Z,11.82
2023-01-29T00:34:49.465Z,11.80
2023-01-29T00:38:14.983Z,11.48
2023-01-29T00:41:57.607Z,11.57
2023-01-29T00:45:23.302Z,10.95
2023-01-29T00:48:50.280Z,12.13
2023-01-29T00:52:28.329Z,11.50
2023-01-29T00:55:53.708Z,12.32
2023-01-29T00:59:19.125Z,11.70
2023-01-29T01:03:01.748Z,13.25
2023-01-29T01:06:28.592Z,14.02
2023-01-29T01:10:10.501Z,14.38
2023-01-29T01:13:36.831Z,12.27
2023-01-29T01:17:02.458Z,13.40
2023-01-29T01:20:28.179Z,11.97
2023-01-29T01:23:54.541Z,12.37
2023-01-29T01:27:20.242Z,11.73
2023-01-29T01:30:45.377Z,12.70
2023-01-29T01:34:14.145Z,12.80
2023-01-29T01:37:39.666Z,13.57
2023-01-29T01:41:07.025Z,13.43
2023-01-29T01:45:08.688Z,13.15
2023-01-29T01:48:35.426Z,13.10
2023-01-29T01:52:01.668Z,12.57
2023-01-29T01:55:29.320Z,12.70
2023-01-29T01:58:57.510Z,12.77
2023-01-29T02:02:40.666Z,12.77
2023-01-29T02:06:24.806Z,12.40
2023-01-29T02:09:52.178Z,12.75
2023-01-29T02:13:21.881Z,12.65
2023-01-29T02:16:49.040Z,12.43
2023-01-29T02:20:20.051Z,11.40
2023-01-29T02:24:13.947Z,12.57
2023-01-29T02:27:55.265Z,12.13
2023-01-29T02:31:30.333Z,13.27
2023-01-29T02:35:18.147Z,13.05
2023-01-29T02:38:46.630Z,13.48
2023-01-29T02:42:15.437Z,13.43
2023-01-29T02:45:46.793Z,13.73
2023-01-29T02:49:15.921Z,14.52
2023-01-29T02:52:45.679Z,13.68
2023-01-29T02:56:16.384Z,13.23
2023-01-29T02:59:43.094Z,14.33
2023-01-29T03:03:10.453Z,12.88
2023-01-29T03:06:39.930Z,14.70
2023-01-29T03:10:05.994Z,14.13
2023-01-29T03:13:36.119Z,13.90
2023-01-29T03:17:02.047Z,14.15
2023-01-29T03:20:30.246Z,14.02
2023-01-29T03:24:14.622Z,14.27
2023-01-29T03:27:58.329Z,13.95
2023-01-29T03:31:42.458Z,14.65
2023-01-29T03:35:09.347Z,14.10
2023-01-29T03:38:35.543Z,14.25
2023-01-29T03:42:05.192Z,12.43
2023-01-29T03:45:45.995Z,14.20
2023-01-29T03:49:14.492Z,14.93
2023-01-29T03:52:42.730Z,14.25
2023-01-29T03:56:09.612Z,15.73
2023-01-29T03:59:40.732Z,15.77
2023-01-29T04:03:09.220Z,15.30
2023-01-29T04:06:36.380Z,13.68
2023-01-29T04:10:02.408Z,13.13
2023-01-29T04:13:28.135Z,13.98
2023-01-29T04:16:56.007Z,13.15
2023-01-29T04:20:22.343Z,12.73
2023-01-29T04:23:47.863Z,14.27
2023-01-29T04:27:23.727Z,13.52
2023-01-29T04:30:52.882Z,13.80
2023-01-29T04:34:24.593Z,14.00
2023-01-29T04:37:53.287Z,13.90
2023-01-29T04:41:23.271Z,13.77
2023-01-29T04:44:53.091Z,15.55
2023-01-29T04:48:22.189Z,15.45
2023-01-29T04:51:56.963Z,15.27
2023-01-29T04:55:24.017Z,15.20
2023-01-29T04:58:51.476Z,14.50
2023-01-29T05:02:17.613Z,12.37
2023-01-29T05:05:46.506Z,14.03
2023-01-29T05:09:14.282Z,14.15
2023-01-29T05:12:40.107Z,13.40
2023-01-29T05:16:13.171Z,12.60
2023-01-29T05:19:38.518Z,12.83
2023-01-29T05:23:04.983Z,12.37
2023-01-29T05:26:48.704Z,11.73
2023-01-29T05:30:14.976Z,12.15
2023-01-29T05:33:40.657Z,12.63
2023-01-29T05:37:08.842Z,13.13
2023-01-29T05:40:33.646Z,11.73
2023-01-29T05:44:00.290Z,12.75
2023-01-29T05:47:25.403Z,14.07
2023-01-29T05:50:51.025Z,13.52
2023-01-29T05:54:16.242Z,13.18
2023-01-29T05:57:43.386Z,13.18
2023-01-29T06:01:14.743Z,14.20
2023-01-29T06:04:40.781Z,12.65
2023-01-29T06:08:06.185Z,13.68
2023-01-29T06:11:32.609Z,12.70
2023-01-29T06:14:57.743Z,13.90
2023-01-29T06:18:25.402Z,13.45
2023-01-29T06:21:50.813Z,15.32
2023-01-29T06:25:17.368Z,15.65
2023-01-29T06:28:42.751Z,14.83
2023-01-29T06:32:08.945Z,14.40
2023-01-29T06:35:35.838Z,15.68
2023-01-29T06:39:01.875Z,14.93
2023-01-29T06:42:28.747Z,13.93
2023-01-29T06:45:56.035Z,13.73
2023-01-29T06:49:21.009Z,13.73
2023-01-29T06:52:48.267Z,12.50
2023-01-29T06:56:13.102Z,11.57
2023-01-29T06:59:39.237Z,13.90
2023-01-29T07:03:04.486Z,14.18
2023-01-29T07:06:31.096Z,16.15
2023-01-29T07:09:57.501Z,14.63
2023-01-29T07:13:23.329Z,15.40
2023-01-29T07:16:48.330Z,14.00
2023-01-29T07:20:14.803Z,13.35
2023-01-29T07:23:40.779Z,12.33
2023-01-29T07:27:07.545Z,13.15
2023-01-29T07:30:32.755Z,13.52
2023-01-29T07:33:58.327Z,11.88
2023-01-29T07:37:23.231Z,13.10
2023-01-29T07:40:49.113Z,12.55
2023-01-29T07:44:16.164Z,13.75
2023-01-29T07:47:41.906Z,16.55
2023-01-29T07:51:06.742Z,19.40
2023-01-29T07:54:39.815Z,15.30
2023-01-29T07:58:05.921Z,12.85
2023-01-29T08:01:33.177Z,12.32
2023-01-29T08:04:59.109Z,7.55
2023-01-29T08:08:24.315Z,8.45
2023-01-29T08:11:49.943Z,8.75
2023-01-29T08:15:14.851Z,10.55
2023-01-29T08:18:45.294Z,9.60
2023-01-29T08:22:10.892Z,7.82
2023-01-29T08:25:36.204Z,6.60
2023-01-29T08:29:01.321Z,7.35
2023-01-29T08:32:27.252Z,7.33
2023-01-29T08:35:53.788Z,7.93
2023-01-29T08:39:20.025Z,6.68
2023-01-29T08:42:44.823Z,7.65
2023-01-29T08:46:10.805Z,7.37
2023-01-29T08:49:37.220Z,6.20
2023-01-29T08:53:04.558Z,6.18
2023-01-29T08:56:31.815Z,7.82
2023-01-29T08:59:58.290Z,5.87
2023-01-29T09:03:23.805Z,6.97
2023-01-29T09:06:48.780Z,6.43
2023-01-29T09:10:17.105Z,7.25
2023-01-29T09:13:43.108Z,7.60
2023-01-29T09:17:08.303Z,8.75
2023-01-29T09:20:33.740Z,7.68
2023-01-29T09:23:58.624Z,7.15
2023-01-29T09:27:25.473Z,7.10
2023-01-29T09:30:50.318Z,7.95
2023-01-29T09:34:16.220Z,7.62
2023-01-29T09:37:41.931Z,6.53
2023-01-29T09:41:11.640Z,8.87
2023-01-29T09:44:51.194Z,7.15
2023-01-29T09:48:16.851Z,9.68
2023-01-29T09:51:43.704Z,8.23
2023-01-29T09:55:15.535Z,3.83
2023-01-29T09:58:41.474Z,6.05
2023-01-29T10:02:12.831Z,5.87
2023-01-29T10:05:51.229Z,6.35
2023-01-29T10:09:58.324Z,4.07
2023-01-29T10:13:29.475Z,5.37
2023-01-29T10:17:06.830Z,5.05
2023-01-29T10:20:41.815Z,9.80
2023-01-29T10:24:19.713Z,7.57
2023-01-29T10:27:50.555Z,4.70
2023-01-29T10:31:16.925Z,4.87
2023-01-29T10:34:47.739Z,6.55
2023-01-29T10:38:23.635Z,6.00
2023-01-29T10:41:59.566Z,6.62
2023-01-29T10:45:28.051Z,5.60
2023-01-29T10:49:02.587Z,4.62
2023-01-29T10:52:36.293Z,4.80
2023-01-29T10:56:20.970Z,3.00
2023-01-29T10:59:58.566Z,5.05
2023-01-29T11:03:28.248Z,4.82
2023-01-29T11:06:53.488Z,3.60
2023-01-29T11:10:19.923Z,4.37
2023-01-29T11:13:53.540Z,4.00
2023-01-29T11:17:19.402Z,3.92
2023-01-29T11:20:44.693Z,5.37
2023-01-29T11:24:17.511Z,4.43
2023-01-29T11:27:46.337Z,4.87
2023-01-29T11:31:24.884Z,4.37
2023-01-29T11:35:06.594Z,5.47
2023-01-29T11:38:35.079Z,2.93
2023-01-29T11:42:01.353Z,5.47
2023-01-29T11:45:31.135Z,4.22
2023-01-29T11:48:59.322Z,3.90
2023-01-29T11:52:40.931Z,5.90
2023-01-29T11:56:08.245Z,4.97
2023-01-29T11:59:43.311Z,4.60
2023-01-29T12:03:09.852Z,4.28
2023-01-29T12:06:39.053Z,5.33
2023-01-29T12:10:04.374Z,3.30
2023-01-29T12:13:31.657Z,3.62
2023-01-29T12:16:57.583Z,3.17
2023-01-29T12:20:26.533Z,2.78
2023-01-29T12:24:03.445Z,3.53
2023-01-29T12:27:33.058Z,2.83
2023-01-29T12:31:09.329Z,5.18
2023-01-29T12:34:42.932Z,3.60
2023-01-29T12:38:11.112Z,3.93
2023-01-29T12:41:46.275Z,3.03
2023-01-29T12:45:13.206Z,3.62
2023-01-29T12:48:41.923Z,3.67
2023-01-29T12:52:10.608Z,4.53
2023-01-29T12:55:38.044Z,4.75
2023-01-29T12:59:07.675Z,4.32
2023-01-29T13:02:38.288Z,3.83
2023-01-29T13:06:05.685Z,3.23
2023-01-29T13:09:33.033Z,3.50
2023-01-29T13:13:00.276Z,3.25
2023-01-29T13:16:29.454Z,3.40
2023-01-29T13:19:56.047Z,3.55
2023-01-29T13:23:23.506Z,3.50
2023-01-29T13:26:49.212Z,4.10
2023-01-29T13:30:31.525Z,3.20
2023-01-29T13:34:01.870Z,3.40
2023-01-29T13:37:31.207Z,4.53
2023-01-29T13:40:56.796Z,4.65
2023-01-29T13:44:25.520Z,4.90
2023-01-29T13:47:51.118Z,7.72
2023-01-29T13:51:27.072Z,7.25
2023-01-29T13:54:57.921Z,5.32
2023-01-29T13:58:57.383Z,6.37
2023-01-29T14:02:24.330Z,5.12
2023-01-29T14:06:00.468Z,3.90
2023-01-29T14:09:59.167Z,5.05
2023-01-29T14:13:37.319Z,3.47
2023-01-29T14:17:04.937Z,5.75
2023-01-29T14:20:46.362Z,4.12
2023-01-29T14:24:19.117Z,5.18
2023-01-29T14:27:49.854Z,7.30
2023-01-29T14:31:15.665Z,4.60
2023-01-29T14:34:53.667Z,5.50
2023-01-29T14:38:22.590Z,4.20
2023-01-29T14:41:52.344Z,4.93
2023-01-29T14:45:27.448Z,4.47
2023-01-29T14:48:54.196Z,4.97
2023-01-29T14:52:19.815Z,4.97
2023-01-29T14:55:47.175Z,5.85
2023-01-29T14:59:19.064Z,7.57
2023-01-29T15:02:48.132Z,6.73
2023-01-29T15:06:18.063Z,6.45
2023-01-29T15:09:47.014Z,6.22
2023-01-29T15:13:21.904Z,5.12
2023-01-29T15:16:52.337Z,5.87
2023-01-29T15:20:33.008Z,6.93
2023-01-29T15:24:09.382Z,4.30
2023-01-29T15:27:35.694Z,5.50
2023-01-29T15:31:03.129Z,6.18
2023-01-29T15:34:31.317Z,9.00
2023-01-29T15:38:06.304Z,4.62
2023-01-29T15:41:34.075Z,4.73
2023-01-29T15:45:03.793Z,7.87
2023-01-29T15:48:32.998Z,5.15
2023-01-29T15:52:00.665Z,5.93
2023-01-29T15:55:32.434Z,4.33
2023-01-29T15:59:01.984Z,4.72
2023-01-29T16:02:41.039Z,4.50
2023-01-29T16:06:09.363Z,5.43
2023-01-29T16:09:35.610Z,4.70
2023-01-29T16:13:03.583Z,5.10
2023-01-29T16:16:30.092Z,5.40
2023-01-29T16:20:00.818Z,4.25
2023-01-29T16:23:29.553Z,4.30
2023-01-29T16:27:01.440Z,4.37
2023-01-29T16:30:30.028Z,3.17
2023-01-29T16:34:01.467Z,5.68
2023-01-29T16:37:28.624Z,4.30
2023-01-29T16:41:15.069Z,3.55
2023-01-29T16:44:41.574Z,4.40
2023-01-29T16:48:28.705Z,3.30
2023-01-29T16:51:57.098Z,4.83
2023-01-29T16:55:25.804Z,4.03
2023-01-29T16:59:13.547Z,3.53
2023-01-29T17:02:54.089Z,2.45
2023-01-29T17:06:25.599Z,3.93
2023-01-29T17:09:52.812Z,5.75
2023-01-29T17:13:27.022Z,3.72
2023-01-29T17:16:55.710Z,4.15
2023-01-29T17:20:23.580Z,5.23
2023-01-29T17:23:55.167Z,5.00
2023-01-29T17:27:26.436Z,5.47
2023-01-29T17:31:05.536Z,4.68
2023-01-29T17:34:32.694Z,4.13
2023-01-29T17:38:00.470Z,5.12
2023-01-29T17:41:31.418Z,3.50
2023-01-29T17:45:09.232Z,3.95
2023-01-29T17:48:42.846Z,5.07
2023-01-29T17:52:10.914Z,7.12
2023-01-29T17:55:45.437Z,6.87
2023-01-29T17:59:16.273Z,4.80
2023-01-29T18:02:45.716Z,3.17
2023-01-29T18:06:13.872Z,5.10
2023-01-29T18:09:43.443Z,3.70
2023-01-29T18:13:11.788Z,4.80
2023-01-29T18:16:39.683Z,6.32
2023-01-29T18:20:20.319Z,7.35
2023-01-29T18:23:51.380Z,6.68
2023-01-29T18:27:20.914Z,6.12
2023-01-29T20:44:38.920Z,14.57
2023-01-29T20:48:03.722Z,14.47
2023-01-29T20:51:27.872Z,14.23
2023-01-29T20:54:52.422Z,14.55
2023-01-29T20:58:16.995Z,13.65
2023-01-29T21:01:43.132Z,13.70
2023-01-29T21:05:07.823Z,14.45
2023-01-29T21:08:32.115Z,12.88
2023-01-29T21:11:56.454Z,10.52
2023-01-29T21:15:20.697Z,12.13
2023-01-29T21:18:46.933Z,12.27
2023-01-29T21:22:12.816Z,11.30
2023-01-29T21:25:36.766Z,10.48
2023-01-29T21:29:00.789Z,8.73
2023-01-29T21:32:25.120Z,7.03
2023-01-29T21:35:58.604Z,9.88
2023-01-29T21:39:24.398Z,10.80
2023-01-29T21:43:05.175Z,13.57
2023-01-29T21:46:27.841Z,8.68
2023-01-29T21:49:51.208Z,10.70
2023-01-29T21:53:15.538Z,10.73
2023-01-29T21:56:38.005Z,11.15
2023-01-29T22:00:01.135Z,8.80
2023-01-29T22:03:26.485Z,5.12
2023-01-29T22:06:49.681Z,7.05
2023-01-29T22:10:13.666Z,8.45
2023-01-29T22:13:36.346Z,8.10
2023-01-29T22:16:58.981Z,8.57
2023-01-29T22:20:29.701Z,8.50
2023-01-29T22:23:52.044Z,7.72
2023-01-29T22:27:16.256Z,5.90
2023-01-29T22:30:41.478Z,7.03
2023-01-29T22:34:04.448Z,5.90
2023-01-29T22:37:26.969Z,9.85
2023-01-29T22:40:51.012Z,10.57
2023-01-29T22:44:14.691Z,9.77
2023-01-29T22:47:37.055Z,8.10
2023-01-29T22:51:10.065Z,10.18
2023-01-29T22:54:32.949Z,10.85
2023-01-29T22:57:55.469Z,12.45
2023-01-29T23:01:20.601Z,12.37
2023-01-29T23:04:43.165Z,11.53
2023-01-29T23:08:06.466Z,10.85
2023-01-29T23:11:29.129Z,10.82
2023-01-29T23:14:51.698Z,6.72
2023-01-29T23:18:15.638Z,8.03
2023-01-29T23:21:38.497Z,8.25
2023-01-29T23:25:02.835Z,8.85
2023-01-29T23:28:24.915Z,6.72
2023-01-29T23:31:47.603Z,7.40
2023-01-29T23:35:11.919Z,7.65
2023-01-29T23:38:34.464Z,10.18
2023-01-29T23:42:00.160Z,9.80
2023-01-29T23:45:22.731Z,9.50
2023-01-29T23:48:45.758Z,7.47
2023-01-29T23:52:09.711Z,9.68
2023-01-29T23:55:32.293Z,7.35
2023-01-29T23:58:55.596Z,7.30
